sensor_id;sensor_type;location;lat;lon;timestamp;temperature;humidity
15636;DHT22;7917;50.818;6.972;2022-07-23T00:01:09;18.90;99.90
15636;DHT22;7917;50.818;6.972;2022-07-23T00:03:37;18.90;1.00
15636;DHT22;7917;50.818;6.972;2022-07-23T00:06:08;19.00;1.00
15636;DHT22;7917;50.818;6.972;2022-07-23T00:08:43;19.00;1.00
15636;DHT22;7917;50.818;6.972;2022-07-23T00:11:14;19.00;1.00
15636;DHT22;7917;50.818;6.972;2022-07-23T00:13:42;19.00;1.00
15636;DHT22;7917;50.818;6.972;2022-07-23T00:16:13;19.00;99.90
15636;DHT22;7917;50.818;6.972;2022-07-23T00:18:41;19.00;99.90
15636;DHT22;7917;50.818;6.972;2022-07-23T00:21:10;18.90;99.90
15636;DHT22;7917;50.818;6.972;2022-07-23T00:23:37;19.00;1.00
15636;DHT22;7917;50.818;6.972;2022-07-23T00:26:05;18.90;99.90
15636;DHT22;7917;50.818;6.972;2022-07-23T00:28:35;18.90;99.90
15636;DHT22;7917;50.818;6.972;2022-07-23T00:31:02;18.90;1.00
15636;DHT22;7917;50.818;6.972;2022-07-23T00:33:29;18.80;1.00
15636;DHT22;7917;50.818;6.972;2022-07-23T00:35:57;18.90;99.90
15636;DHT22;7917;50.818;6.972;2022-07-23T00:38:24;18.80;99.90
15636;DHT22;7917;50.818;6.972;2022-07-23T00:40:51;18.70;1.00
15636;DHT22;7917;50.818;6.972;2022-07-23T00:43:20;18.60;1.00
15636;DHT22;7917;50.818;6.972;2022-07-23T00:45:49;18.50;1.00
15636;DHT22;7917;50.818;6.972;2022-07-23T00:48:16;18.40;99.90
15636;DHT22;7917;50.818;6.972;2022-07-23T00:50:43;18.30;1.00
15636;DHT22;7917;50.818;6.972;2022-07-23T00:53:11;18.30;99.90
15636;DHT22;7917;50.818;6.972;2022-07-23T00:55:39;18.30;99.90
15636;DHT22;7917;50.818;6.972;2022-07-23T00:58:06;18.20;1.00
15636;DHT22;7917;50.818;6.972;2022-07-23T01:00:34;18.20;99.90
15636;DHT22;7917;50.818;6.972;2022-07-23T01:03:03;18.20;1.00
15636;DHT22;7917;50.818;6.972;2022-07-23T01:05:30;18.20;1.00
15636;DHT22;7917;50.818;6.972;2022-07-23T01:07:58;18.10;99.90
15636;DHT22;7917;50.818;6.972;2022-07-23T01:10:25;18.10;1.00
15636;DHT22;7917;50.818;6.972;2022-07-23T01:12:59;18.00;1.00
15636;DHT22;7917;50.818;6.972;2022-07-23T01:15:28;17.90;1.00
15636;DHT22;7917;50.818;6.972;2022-07-23T01:17:59;17.90;34.60
15636;DHT22;7917;50.818;6.972;2022-07-23T01:20:34;17.90;66.30
15636;DHT22;7917;50.818;6.972;2022-07-23T01:23:09;17.80;99.90
15636;DHT22;7917;50.818;6.972;2022-07-23T01:25:36;17.80;47.70
15636;DHT22;7917;50.818;6.972;2022-07-23T01:28:05;17.80;63.80
15636;DHT22;7917;50.818;6.972;2022-07-23T01:30:34;17.80;1.00
15636;DHT22;7917;50.818;6.972;2022-07-23T01:33:02;17.80;1.00
15636;DHT22;7917;50.818;6.972;2022-07-23T01:35:32;17.80;99.90
15636;DHT22;7917;50.818;6.972;2022-07-23T01:38:00;17.70;1.00
15636;DHT22;7917;50.818;6.972;2022-07-23T01:40:30;17.70;1.00
15636;DHT22;7917;50.818;6.972;2022-07-23T01:42:59;17.80;1.00
15636;DHT22;7917;50.818;6.972;2022-07-23T01:45:28;17.80;1.00
15636;DHT22;7917;50.818;6.972;2022-07-23T01:47:56;17.80;99.90
15636;DHT22;7917;50.818;6.972;2022-07-23T01:50:24;17.80;99.90
15636;DHT22;7917;50.818;6.972;2022-07-23T01:52:53;17.70;99.90
15636;DHT22;7917;50.818;6.972;2022-07-23T01:55:24;17.70;99.90
15636;DHT22;7917;50.818;6.972;2022-07-23T01:57:56;17.70;99.90
15636;DHT22;7917;50.818;6.972;2022-07-23T02:00:24;17.70;1.00
15636;DHT22;7917;50.818;6.972;2022-07-23T02:02:53;17.70;1.00
15636;DHT22;7917;50.818;6.972;2022-07-23T02:05:21;17.70;99.90
15636;DHT22;7917;50.818;6.972;2022-07-23T02:07:49;17.70;1.00
15636;DHT22;7917;50.818;6.972;2022-07-23T02:10:18;17.70;44.20
15636;DHT22;7917;50.818;6.972;2022-07-23T02:12:46;17.60;99.90
15636;DHT22;7917;50.818;6.972;2022-07-23T02:15:15;17.50;99.90
15636;DHT22;7917;50.818;6.972;2022-07-23T02:17:44;17.50;99.90
15636;DHT22;7917;50.818;6.972;2022-07-23T02:20:12;17.30;99.90
15636;DHT22;7917;50.818;6.972;2022-07-23T02:22:44;17.20;99.90
15636;DHT22;7917;50.818;6.972;2022-07-23T02:25:13;17.10;99.90
15636;DHT22;7917;50.818;6.972;2022-07-23T02:27:40;17.10;99.90
15636;DHT22;7917;50.818;6.972;2022-07-23T02:30:08;17.10;99.90
15636;DHT22;7917;50.818;6.972;2022-07-23T02:32:37;17.00;99.90
15636;DHT22;7917;50.818;6.972;2022-07-23T02:35:06;17.00;99.90
15636;DHT22;7917;50.818;6.972;2022-07-23T02:37:33;16.90;99.90
15636;DHT22;7917;50.818;6.972;2022-07-23T02:40:06;16.90;99.90
15636;DHT22;7917;50.818;6.972;2022-07-23T02:42:35;16.90;99.90
15636;DHT22;7917;50.818;6.972;2022-07-23T02:45:03;16.90;99.90
15636;DHT22;7917;50.818;6.972;2022-07-23T02:47:38;16.90;99.90
15636;DHT22;7917;50.818;6.972;2022-07-23T02:50:12;16.90;99.90
15636;DHT22;7917;50.818;6.972;2022-07-23T02:52:40;16.80;99.90
15636;DHT22;7917;50.818;6.972;2022-07-23T02:55:11;16.80;99.90
15636;DHT22;7917;50.818;6.972;2022-07-23T02:57:41;16.80;99.90
15636;DHT22;7917;50.818;6.972;2022-07-23T03:00:55;16.70;99.90
15636;DHT22;7917;50.818;6.972;2022-07-23T03:03:36;16.70;99.90
15636;DHT22;7917;50.818;6.972;2022-07-23T03:06:13;16.70;99.90
15636;DHT22;7917;50.818;6.972;2022-07-23T03:08:50;16.70;99.90
15636;DHT22;7917;50.818;6.972;2022-07-23T03:11:25;16.70;99.90
15636;DHT22;7917;50.818;6.972;2022-07-23T03:13:54;16.70;99.90
15636;DHT22;7917;50.818;6.972;2022-07-23T03:16:26;16.60;99.90
15636;DHT22;7917;50.818;6.972;2022-07-23T03:19:08;16.60;99.90
15636;DHT22;7917;50.818;6.972;2022-07-23T03:21:39;16.60;99.90
15636;DHT22;7917;50.818;6.972;2022-07-23T03:24:08;16.60;99.90
15636;DHT22;7917;50.818;6.972;2022-07-23T03:26:35;16.50;99.90
15636;DHT22;7917;50.818;6.972;2022-07-23T03:29:20;16.50;99.90
15636;DHT22;7917;50.818;6.972;2022-07-23T03:31:48;16.40;99.90
15636;DHT22;7917;50.818;6.972;2022-07-23T03:34:17;16.30;99.90
15636;DHT22;7917;50.818;6.972;2022-07-23T03:36:50;16.30;99.90
15636;DHT22;7917;50.818;6.972;2022-07-23T03:39:27;16.10;99.90
15636;DHT22;7917;50.818;6.972;2022-07-23T03:42:00;16.10;99.90
15636;DHT22;7917;50.818;6.972;2022-07-23T03:44:30;16.00;99.90
15636;DHT22;7917;50.818;6.972;2022-07-23T03:46:57;16.00;99.90
15636;DHT22;7917;50.818;6.972;2022-07-23T03:49:33;15.90;99.90
15636;DHT22;7917;50.818;6.972;2022-07-23T03:52:12;15.90;99.90
15636;DHT22;7917;50.818;6.972;2022-07-23T03:54:45;15.90;99.90
15636;DHT22;7917;50.818;6.972;2022-07-23T03:57:56;15.80;99.90
15636;DHT22;7917;50.818;6.972;2022-07-23T04:00:27;15.80;99.90
15636;DHT22;7917;50.818;6.972;2022-07-23T04:03:10;15.80;99.90
15636;DHT22;7917;50.818;6.972;2022-07-23T04:05:54;15.70;99.90
15636;DHT22;7917;50.818;6.972;2022-07-23T04:08:46;15.70;99.90
15636;DHT22;7917;50.818;6.972;2022-07-23T04:11:21;15.70;99.90
15636;DHT22;7917;50.818;6.972;2022-07-23T04:13:54;15.70;99.90
15636;DHT22;7917;50.818;6.972;2022-07-23T04:16:25;15.70;99.90
15636;DHT22;7917;50.818;6.972;2022-07-23T04:18:52;15.70;99.90
15636;DHT22;7917;50.818;6.972;2022-07-23T04:21:30;15.60;99.90
15636;DHT22;7917;50.818;6.972;2022-07-23T04:24:05;15.60;99.90
15636;DHT22;7917;50.818;6.972;2022-07-23T04:26:38;15.60;99.90
15636;DHT22;7917;50.818;6.972;2022-07-23T04:29:05;15.60;99.90
15636;DHT22;7917;50.818;6.972;2022-07-23T04:31:34;15.70;99.90
15636;DHT22;7917;50.818;6.972;2022-07-23T04:34:18;15.60;99.90
15636;DHT22;7917;50.818;6.972;2022-07-23T04:36:51;15.60;99.90
15636;DHT22;7917;50.818;6.972;2022-07-23T04:39:23;15.60;99.90
15636;DHT22;7917;50.818;6.972;2022-07-23T04:41:55;15.70;99.90
15636;DHT22;7917;50.818;6.972;2022-07-23T04:44:34;15.70;99.90
15636;DHT22;7917;50.818;6.972;2022-07-23T04:47:33;15.80;99.90
15636;DHT22;7917;50.818;6.972;2022-07-23T04:50:00;15.80;99.90
15636;DHT22;7917;50.818;6.972;2022-07-23T04:52:28;15.80;99.90
15636;DHT22;7917;50.818;6.972;2022-07-23T04:55:03;15.90;99.90
15636;DHT22;7917;50.818;6.972;2022-07-23T04:57:38;15.90;99.90
15636;DHT22;7917;50.818;6.972;2022-07-23T05:00:08;15.90;99.90
15636;DHT22;7917;50.818;6.972;2022-07-23T05:02:46;16.00;99.90
15636;DHT22;7917;50.818;6.972;2022-07-23T05:05:16;16.00;99.90
15636;DHT22;7917;50.818;6.972;2022-07-23T05:07:54;16.10;99.90
15636;DHT22;7917;50.818;6.972;2022-07-23T05:10:31;16.20;99.90
15636;DHT22;7917;50.818;6.972;2022-07-23T05:12:59;16.30;99.90
15636;DHT22;7917;50.818;6.972;2022-07-23T05:15:30;16.40;99.90
15636;DHT22;7917;50.818;6.972;2022-07-23T05:18:05;16.40;99.90
15636;DHT22;7917;50.818;6.972;2022-07-23T05:20:43;16.60;99.90
15636;DHT22;7917;50.818;6.972;2022-07-23T05:23:26;16.70;99.90
15636;DHT22;7917;50.818;6.972;2022-07-23T05:25:55;16.80;99.90
15636;DHT22;7917;50.818;6.972;2022-07-23T05:28:40;16.90;99.90
15636;DHT22;7917;50.818;6.972;2022-07-23T05:31:08;17.00;99.90
15636;DHT22;7917;50.818;6.972;2022-07-23T05:33:57;17.20;99.90
15636;DHT22;7917;50.818;6.972;2022-07-23T05:36:38;17.30;99.90
15636;DHT22;7917;50.818;6.972;2022-07-23T05:39:27;17.50;99.90
15636;DHT22;7917;50.818;6.972;2022-07-23T05:42:27;17.50;99.90
15636;DHT22;7917;50.818;6.972;2022-07-23T05:44:55;17.50;99.90
15636;DHT22;7917;50.818;6.972;2022-07-23T05:47:22;17.60;99.90
15636;DHT22;7917;50.818;6.972;2022-07-23T05:50:04;17.70;99.90
15636;DHT22;7917;50.818;6.972;2022-07-23T05:52:41;17.70;99.90
15636;DHT22;7917;50.818;6.972;2022-07-23T05:55:11;17.60;99.90
15636;DHT22;7917;50.818;6.972;2022-07-23T05:57:41;17.50;99.90
15636;DHT22;7917;50.818;6.972;2022-07-23T06:00:13;17.50;99.90
15636;DHT22;7917;50.818;6.972;2022-07-23T06:02:46;17.60;99.90
15636;DHT22;7917;50.818;6.972;2022-07-23T06:05:15;17.60;99.90
15636;DHT22;7917;50.818;6.972;2022-07-23T06:07:47;17.60;99.90
15636;DHT22;7917;50.818;6.972;2022-07-23T06:10:16;17.60;99.90
15636;DHT22;7917;50.818;6.972;2022-07-23T06:12:44;17.70;99.90
15636;DHT22;7917;50.818;6.972;2022-07-23T06:15:13;17.70;99.90
15636;DHT22;7917;50.818;6.972;2022-07-23T06:17:44;17.90;99.90
15636;DHT22;7917;50.818;6.972;2022-07-23T06:20:15;18.00;99.90
15636;DHT22;7917;50.818;6.972;2022-07-23T06:22:46;17.90;99.90
15636;DHT22;7917;50.818;6.972;2022-07-23T06:25:20;17.90;99.90
15636;DHT22;7917;50.818;6.972;2022-07-23T06:27:48;18.00;99.90
15636;DHT22;7917;50.818;6.972;2022-07-23T06:30:19;18.10;99.90
15636;DHT22;7917;50.818;6.972;2022-07-23T06:33:02;18.30;99.90
15636;DHT22;7917;50.818;6.972;2022-07-23T06:35:51;18.60;99.90
15636;DHT22;7917;50.818;6.972;2022-07-23T06:38:24;18.80;99.90
15636;DHT22;7917;50.818;6.972;2022-07-23T06:40:53;18.90;99.90
15636;DHT22;7917;50.818;6.972;2022-07-23T06:43:24;18.90;99.90
15636;DHT22;7917;50.818;6.972;2022-07-23T06:45:51;19.00;99.90
15636;DHT22;7917;50.818;6.972;2022-07-23T06:48:19;19.10;99.90
15636;DHT22;7917;50.818;6.972;2022-07-23T06:50:48;19.00;99.90
15636;DHT22;7917;50.818;6.972;2022-07-23T06:53:18;19.10;1.00
15636;DHT22;7917;50.818;6.972;2022-07-23T06:55:46;19.10;99.90
15636;DHT22;7917;50.818;6.972;2022-07-23T06:58:14;19.20;99.90
15636;DHT22;7917;50.818;6.972;2022-07-23T07:00:42;19.20;99.90
15636;DHT22;7917;50.818;6.972;2022-07-23T07:03:09;19.20;99.90
15636;DHT22;7917;50.818;6.972;2022-07-23T07:05:36;19.00;1.00
15636;DHT22;7917;50.818;6.972;2022-07-23T07:08:06;19.20;1.00
15636;DHT22;7917;50.818;6.972;2022-07-23T07:10:34;19.20;99.90
15636;DHT22;7917;50.818;6.972;2022-07-23T07:13:05;19.30;1.00
15636;DHT22;7917;50.818;6.972;2022-07-23T07:15:33;19.40;1.00
15636;DHT22;7917;50.818;6.972;2022-07-23T07:18:00;19.70;1.00
15636;DHT22;7917;50.818;6.972;2022-07-23T07:20:28;19.70;36.50
15636;DHT22;7917;50.818;6.972;2022-07-23T07:22:56;19.90;1.00
15636;DHT22;7917;50.818;6.972;2022-07-23T07:25:37;20.20;1.00
15636;DHT22;7917;50.818;6.972;2022-07-23T07:28:05;20.30;77.20
15636;DHT22;7917;50.818;6.972;2022-07-23T07:30:33;20.20;99.90
15636;DHT22;7917;50.818;6.972;2022-07-23T07:33:00;20.30;1.00
15636;DHT22;7917;50.818;6.972;2022-07-23T07:35:27;20.20;99.90
15636;DHT22;7917;50.818;6.972;2022-07-23T07:37:56;20.30;1.00
15636;DHT22;7917;50.818;6.972;2022-07-23T07:40:26;20.20;1.00
15636;DHT22;7917;50.818;6.972;2022-07-23T07:42:54;20.10;18.90
15636;DHT22;7917;50.818;6.972;2022-07-23T07:45:24;20.00;1.00
15636;DHT22;7917;50.818;6.972;2022-07-23T07:47:51;20.10;99.90
15636;DHT22;7917;50.818;6.972;2022-07-23T07:50:20;20.10;99.90
15636;DHT22;7917;50.818;6.972;2022-07-23T07:52:48;20.20;1.00
15636;DHT22;7917;50.818;6.972;2022-07-23T07:55:16;20.20;1.00
15636;DHT22;7917;50.818;6.972;2022-07-23T07:57:45;20.30;1.00
15636;DHT22;7917;50.818;6.972;2022-07-23T08:00:13;20.20;70.40
15636;DHT22;7917;50.818;6.972;2022-07-23T08:02:42;20.30;1.00
15636;DHT22;7917;50.818;6.972;2022-07-23T08:05:09;20.50;99.90
15636;DHT22;7917;50.818;6.972;2022-07-23T08:07:37;20.70;1.00
15636;DHT22;7917;50.818;6.972;2022-07-23T08:10:09;20.70;87.00
15636;DHT22;7917;50.818;6.972;2022-07-23T08:12:41;20.50;1.00
15636;DHT22;7917;50.818;6.972;2022-07-23T08:15:37;20.60;1.00
15636;DHT22;7917;50.818;6.972;2022-07-23T08:18:05;20.60;1.00
15636;DHT22;7917;50.818;6.972;2022-07-23T08:20:32;20.80;1.00
15636;DHT22;7917;50.818;6.972;2022-07-23T08:23:02;21.00;1.00
15636;DHT22;7917;50.818;6.972;2022-07-23T08:28:25;21.50;1.00
15636;DHT22;7917;50.818;6.972;2022-07-23T08:31:23;21.50;99.90
15636;DHT22;7917;50.818;6.972;2022-07-23T08:33:52;21.30;99.90
15636;DHT22;7917;50.818;6.972;2022-07-23T08:36:26;21.00;1.00
15636;DHT22;7917;50.818;6.972;2022-07-23T08:38:58;21.00;1.00
15636;DHT22;7917;50.818;6.972;2022-07-23T08:41:28;21.00;99.90
15636;DHT22;7917;50.818;6.972;2022-07-23T08:43:55;21.00;1.00
15636;DHT22;7917;50.818;6.972;2022-07-23T08:46:28;20.90;1.00
15636;DHT22;7917;50.818;6.972;2022-07-23T08:48:56;21.00;1.00
15636;DHT22;7917;50.818;6.972;2022-07-23T08:51:31;21.10;50.80
15636;DHT22;7917;50.818;6.972;2022-07-23T08:54:02;21.20;1.00
15636;DHT22;7917;50.818;6.972;2022-07-23T08:56:31;21.40;99.90
15636;DHT22;7917;50.818;6.972;2022-07-23T08:59:06;21.50;1.00
15636;DHT22;7917;50.818;6.972;2022-07-23T09:01:35;21.90;1.00
15636;DHT22;7917;50.818;6.972;2022-07-23T09:04:03;22.10;1.00
15636;DHT22;7917;50.818;6.972;2022-07-23T09:06:53;22.20;99.90
15636;DHT22;7917;50.818;6.972;2022-07-23T09:09:24;22.50;1.00
15636;DHT22;7917;50.818;6.972;2022-07-23T09:12:07;22.60;99.90
15636;DHT22;7917;50.818;6.972;2022-07-23T09:14:40;22.90;1.00
15636;DHT22;7917;50.818;6.972;2022-07-23T09:17:14;22.80;1.00
15636;DHT22;7917;50.818;6.972;2022-07-23T09:19:45;22.90;99.90
15636;DHT22;7917;50.818;6.972;2022-07-23T09:22:22;22.40;1.00
15636;DHT22;7917;50.818;6.972;2022-07-23T09:25:08;22.30;99.90
15636;DHT22;7917;50.818;6.972;2022-07-23T09:27:53;22.40;99.90
15636;DHT22;7917;50.818;6.972;2022-07-23T09:30:23;22.90;1.00
15636;DHT22;7917;50.818;6.972;2022-07-23T09:33:08;23.10;1.00
15636;DHT22;7917;50.818;6.972;2022-07-23T09:35:45;22.90;1.00
15636;DHT22;7917;50.818;6.972;2022-07-23T09:38:15;23.00;1.00
15636;DHT22;7917;50.818;6.972;2022-07-23T09:40:44;23.20;99.90
15636;DHT22;7917;50.818;6.972;2022-07-23T09:43:14;23.50;1.00
15636;DHT22;7917;50.818;6.972;2022-07-23T09:45:53;23.60;1.00
15636;DHT22;7917;50.818;6.972;2022-07-23T09:48:43;23.80;99.90
15636;DHT22;7917;50.818;6.972;2022-07-23T09:51:10;23.80;99.90
15636;DHT22;7917;50.818;6.972;2022-07-23T09:53:38;23.80;99.90
15636;DHT22;7917;50.818;6.972;2022-07-23T09:56:08;23.60;99.90
15636;DHT22;7917;50.818;6.972;2022-07-23T09:58:40;23.70;99.90
15636;DHT22;7917;50.818;6.972;2022-07-23T10:01:33;24.00;99.90
15636;DHT22;7917;50.818;6.972;2022-07-23T10:04:03;24.10;99.90
15636;DHT22;7917;50.818;6.972;2022-07-23T10:06:31;24.10;99.90
15636;DHT22;7917;50.818;6.972;2022-07-23T10:08:59;24.30;99.90
15636;DHT22;7917;50.818;6.972;2022-07-23T10:11:27;24.30;91.00
15636;DHT22;7917;50.818;6.972;2022-07-23T10:13:57;24.40;99.90
15636;DHT22;7917;50.818;6.972;2022-07-23T10:16:24;24.40;1.00
15636;DHT22;7917;50.818;6.972;2022-07-23T10:18:52;24.40;1.00
15636;DHT22;7917;50.818;6.972;2022-07-23T10:21:30;24.40;1.00
15636;DHT22;7917;50.818;6.972;2022-07-23T10:24:17;24.20;1.00
15636;DHT22;7917;50.818;6.972;2022-07-23T10:26:54;24.30;1.00
15636;DHT22;7917;50.818;6.972;2022-07-23T10:29:38;24.30;1.00
15636;DHT22;7917;50.818;6.972;2022-07-23T10:32:17;24.10;1.00
15636;DHT22;7917;50.818;6.972;2022-07-23T10:34:52;24.30;1.00
15636;DHT22;7917;50.818;6.972;2022-07-23T10:37:31;24.50;1.00
15636;DHT22;7917;50.818;6.972;2022-07-23T10:40:12;24.70;1.00
15636;DHT22;7917;50.818;6.972;2022-07-23T10:42:42;24.80;1.00
15636;DHT22;7917;50.818;6.972;2022-07-23T10:45:29;25.10;1.00
15636;DHT22;7917;50.818;6.972;2022-07-23T10:48:16;25.10;1.00
15636;DHT22;7917;50.818;6.972;2022-07-23T10:51:08;24.80;1.00
15636;DHT22;7917;50.818;6.972;2022-07-23T10:54:06;25.00;1.00
15636;DHT22;7917;50.818;6.972;2022-07-23T10:57:11;24.90;1.00
15636;DHT22;7917;50.818;6.972;2022-07-23T11:02:54;25.00;1.00
15636;DHT22;7917;50.818;6.972;2022-07-23T11:05:41;24.70;1.00
15636;DHT22;7917;50.818;6.972;2022-07-23T11:08:22;24.90;1.00
15636;DHT22;7917;50.818;6.972;2022-07-23T11:11:12;25.10;1.00
15636;DHT22;7917;50.818;6.972;2022-07-23T11:13:48;25.20;1.00
15636;DHT22;7917;50.818;6.972;2022-07-23T11:16:21;25.50;1.00
15636;DHT22;7917;50.818;6.972;2022-07-23T11:19:20;25.80;1.00
15636;DHT22;7917;50.818;6.972;2022-07-23T11:21:52;25.60;1.00
15636;DHT22;7917;50.818;6.972;2022-07-23T11:24:27;25.40;1.00
15636;DHT22;7917;50.818;6.972;2022-07-23T11:27:02;25.70;1.00
15636;DHT22;7917;50.818;6.972;2022-07-23T11:29:45;25.70;1.00
15636;DHT22;7917;50.818;6.972;2022-07-23T11:32:32;25.90;1.00
15636;DHT22;7917;50.818;6.972;2022-07-23T11:35:01;25.90;1.00
15636;DHT22;7917;50.818;6.972;2022-07-23T11:37:37;25.80;1.00
15636;DHT22;7917;50.818;6.972;2022-07-23T11:40:13;26.20;1.00
15636;DHT22;7917;50.818;6.972;2022-07-23T11:42:59;26.30;1.00
15636;DHT22;7917;50.818;6.972;2022-07-23T11:45:32;26.40;99.90
15636;DHT22;7917;50.818;6.972;2022-07-23T11:48:07;26.30;99.90
15636;DHT22;7917;50.818;6.972;2022-07-23T11:50:36;26.40;1.00
15636;DHT22;7917;50.818;6.972;2022-07-23T11:53:04;26.20;1.00
15636;DHT22;7917;50.818;6.972;2022-07-23T11:55:32;26.50;1.00
15636;DHT22;7917;50.818;6.972;2022-07-23T11:58:03;27.00;99.90
15636;DHT22;7917;50.818;6.972;2022-07-23T12:00:32;27.10;1.00
15636;DHT22;7917;50.818;6.972;2022-07-23T12:03:03;27.00;99.90
15636;DHT22;7917;50.818;6.972;2022-07-23T12:05:34;27.00;99.90
15636;DHT22;7917;50.818;6.972;2022-07-23T12:08:04;27.00;99.90
15636;DHT22;7917;50.818;6.972;2022-07-23T12:10:35;27.40;99.90
15636;DHT22;7917;50.818;6.972;2022-07-23T12:13:07;27.10;99.90
15636;DHT22;7917;50.818;6.972;2022-07-23T12:15:38;26.90;99.90
15636;DHT22;7917;50.818;6.972;2022-07-23T12:18:06;27.10;99.90
15636;DHT22;7917;50.818;6.972;2022-07-23T12:20:38;26.90;99.90
15636;DHT22;7917;50.818;6.972;2022-07-23T12:23:09;27.10;99.90
15636;DHT22;7917;50.818;6.972;2022-07-23T12:25:40;27.20;99.90
15636;DHT22;7917;50.818;6.972;2022-07-23T12:28:11;27.30;99.90
15636;DHT22;7917;50.818;6.972;2022-07-23T12:30:40;27.50;99.90
15636;DHT22;7917;50.818;6.972;2022-07-23T12:33:09;27.50;99.90
15636;DHT22;7917;50.818;6.972;2022-07-23T12:35:38;27.20;99.90
15636;DHT22;7917;50.818;6.972;2022-07-23T12:38:08;27.20;99.90
15636;DHT22;7917;50.818;6.972;2022-07-23T12:40:41;27.40;99.90
15636;DHT22;7917;50.818;6.972;2022-07-23T12:43:11;27.50;99.90
15636;DHT22;7917;50.818;6.972;2022-07-23T12:45:45;27.50;99.90
15636;DHT22;7917;50.818;6.972;2022-07-23T12:48:18;27.30;99.90
15636;DHT22;7917;50.818;6.972;2022-07-23T12:50:50;27.30;99.90
15636;DHT22;7917;50.818;6.972;2022-07-23T12:53:21;27.40;99.90
15636;DHT22;7917;50.818;6.972;2022-07-23T12:56:04;27.70;99.90
15636;DHT22;7917;50.818;6.972;2022-07-23T12:58:43;27.70;99.90
15636;DHT22;7917;50.818;6.972;2022-07-23T13:01:22;27.80;99.90
15636;DHT22;7917;50.818;6.972;2022-07-23T13:03:57;27.80;99.90
15636;DHT22;7917;50.818;6.972;2022-07-23T13:06:31;27.70;99.90
15636;DHT22;7917;50.818;6.972;2022-07-23T13:08:59;27.60;99.90
15636;DHT22;7917;50.818;6.972;2022-07-23T13:11:27;27.70;99.90
15636;DHT22;7917;50.818;6.972;2022-07-23T13:13:57;27.70;99.90
15636;DHT22;7917;50.818;6.972;2022-07-23T13:16:32;27.60;99.90
15636;DHT22;7917;50.818;6.972;2022-07-23T13:19:07;27.40;99.90
15636;DHT22;7917;50.818;6.972;2022-07-23T13:21:47;27.50;99.90
15636;DHT22;7917;50.818;6.972;2022-07-23T13:24:15;27.60;99.90
15636;DHT22;7917;50.818;6.972;2022-07-23T13:26:44;27.60;99.90
15636;DHT22;7917;50.818;6.972;2022-07-23T13:29:24;27.80;99.90
15636;DHT22;7917;50.818;6.972;2022-07-23T13:31:55;27.90;99.90
15636;DHT22;7917;50.818;6.972;2022-07-23T13:34:23;28.20;99.90
15636;DHT22;7917;50.818;6.972;2022-07-23T13:36:56;28.40;99.90
15636;DHT22;7917;50.818;6.972;2022-07-23T13:39:23;28.60;99.90
15636;DHT22;7917;50.818;6.972;2022-07-23T13:41:52;28.70;99.90
15636;DHT22;7917;50.818;6.972;2022-07-23T13:44:24;28.10;99.90
15636;DHT22;7917;50.818;6.972;2022-07-23T13:46:56;27.60;99.90
15636;DHT22;7917;50.818;6.972;2022-07-23T13:49:25;27.80;99.90
15636;DHT22;7917;50.818;6.972;2022-07-23T13:51:57;28.30;99.90
15636;DHT22;7917;50.818;6.972;2022-07-23T13:54:25;28.40;99.90
15636;DHT22;7917;50.818;6.972;2022-07-23T13:56:52;28.50;99.90
15636;DHT22;7917;50.818;6.972;2022-07-23T13:59:22;28.60;99.90
15636;DHT22;7917;50.818;6.972;2022-07-23T14:01:52;28.70;99.90
15636;DHT22;7917;50.818;6.972;2022-07-23T14:04:39;28.30;99.90
15636;DHT22;7917;50.818;6.972;2022-07-23T14:07:06;28.00;99.90
15636;DHT22;7917;50.818;6.972;2022-07-23T14:09:34;28.10;99.90
15636;DHT22;7917;50.818;6.972;2022-07-23T14:12:08;28.20;99.90
15636;DHT22;7917;50.818;6.972;2022-07-23T14:14:38;28.20;99.90
15636;DHT22;7917;50.818;6.972;2022-07-23T14:17:08;28.30;99.90
15636;DHT22;7917;50.818;6.972;2022-07-23T14:19:40;28.20;99.90
15636;DHT22;7917;50.818;6.972;2022-07-23T14:22:13;28.10;99.90
15636;DHT22;7917;50.818;6.972;2022-07-23T14:24:41;28.30;99.90
15636;DHT22;7917;50.818;6.972;2022-07-23T14:27:13;28.30;99.90
15636;DHT22;7917;50.818;6.972;2022-07-23T14:29:42;28.10;99.90
15636;DHT22;7917;50.818;6.972;2022-07-23T14:32:15;28.30;99.90
15636;DHT22;7917;50.818;6.972;2022-07-23T14:34:48;28.70;99.90
15636;DHT22;7917;50.818;6.972;2022-07-23T14:37:18;29.00;99.90
15636;DHT22;7917;50.818;6.972;2022-07-23T14:39:46;29.40;99.90
15636;DHT22;7917;50.818;6.972;2022-07-23T14:42:24;29.30;99.90
15636;DHT22;7917;50.818;6.972;2022-07-23T14:44:54;29.60;99.90
15636;DHT22;7917;50.818;6.972;2022-07-23T14:47:28;29.60;99.90
15636;DHT22;7917;50.818;6.972;2022-07-23T14:49:56;29.80;99.90
15636;DHT22;7917;50.818;6.972;2022-07-23T14:52:23;29.80;99.90
15636;DHT22;7917;50.818;6.972;2022-07-23T14:54:51;29.90;99.90
15636;DHT22;7917;50.818;6.972;2022-07-23T14:57:19;30.00;99.90
15636;DHT22;7917;50.818;6.972;2022-07-23T14:59:48;30.00;99.90
15636;DHT22;7917;50.818;6.972;2022-07-23T15:02:18;30.00;99.90
15636;DHT22;7917;50.818;6.972;2022-07-23T15:04:47;30.10;99.90
15636;DHT22;7917;50.818;6.972;2022-07-23T15:07:20;30.20;99.90
15636;DHT22;7917;50.818;6.972;2022-07-23T15:09:50;30.50;99.90
15636;DHT22;7917;50.818;6.972;2022-07-23T15:12:32;30.30;99.90
15636;DHT22;7917;50.818;6.972;2022-07-23T15:14:59;30.40;99.90
15636;DHT22;7917;50.818;6.972;2022-07-23T15:17:28;30.90;99.90
15636;DHT22;7917;50.818;6.972;2022-07-23T15:20:04;31.40;99.90
15636;DHT22;7917;50.818;6.972;2022-07-23T15:22:32;31.40;99.90
15636;DHT22;7917;50.818;6.972;2022-07-23T15:25:11;31.10;99.90
15636;DHT22;7917;50.818;6.972;2022-07-23T15:27:45;30.70;99.90
15636;DHT22;7917;50.818;6.972;2022-07-23T15:30:13;30.70;99.90
15636;DHT22;7917;50.818;6.972;2022-07-23T15:32:55;30.70;99.90
15636;DHT22;7917;50.818;6.972;2022-07-23T15:35:23;30.90;99.90
15636;DHT22;7917;50.818;6.972;2022-07-23T15:37:51;31.20;99.90
15636;DHT22;7917;50.818;6.972;2022-07-23T15:40:19;31.50;99.90
15636;DHT22;7917;50.818;6.972;2022-07-23T15:42:53;31.40;99.90
15636;DHT22;7917;50.818;6.972;2022-07-23T15:45:21;31.50;99.90
15636;DHT22;7917;50.818;6.972;2022-07-23T15:47:50;31.20;99.90
15636;DHT22;7917;50.818;6.972;2022-07-23T15:50:18;31.20;99.90
15636;DHT22;7917;50.818;6.972;2022-07-23T15:52:52;31.00;99.90
15636;DHT22;7917;50.818;6.972;2022-07-23T15:55:20;31.00;99.90
15636;DHT22;7917;50.818;6.972;2022-07-23T15:57:48;30.90;99.90
15636;DHT22;7917;50.818;6.972;2022-07-23T16:00:17;31.00;99.90
15636;DHT22;7917;50.818;6.972;2022-07-23T16:02:46;30.80;99.90
15636;DHT22;7917;50.818;6.972;2022-07-23T16:05:29;30.90;99.90
15636;DHT22;7917;50.818;6.972;2022-07-23T16:07:58;30.60;99.90
15636;DHT22;7917;50.818;6.972;2022-07-23T16:10:26;30.40;99.90
15636;DHT22;7917;50.818;6.972;2022-07-23T16:13:00;30.40;99.90
15636;DHT22;7917;50.818;6.972;2022-07-23T16:15:43;30.60;99.90
15636;DHT22;7917;50.818;6.972;2022-07-23T16:18:12;30.60;99.90
15636;DHT22;7917;50.818;6.972;2022-07-23T16:20:41;30.20;99.90
15636;DHT22;7917;50.818;6.972;2022-07-23T16:23:08;30.10;99.90
15636;DHT22;7917;50.818;6.972;2022-07-23T16:25:36;29.90;99.90
15636;DHT22;7917;50.818;6.972;2022-07-23T16:28:04;30.10;99.90
15636;DHT22;7917;50.818;6.972;2022-07-23T16:30:32;29.70;99.90